Time;durP1;ratioP1;P1;durP2;ratioP2;P2;SDS_P1;SDS_P2;PMS_P1;PMS_P2;Temp;Humidity;BMP_temperature;BMP_pressure;BME280_temperature;BME280_humidity;BME280_pressure;Samples;Min_cycle;Max_cycle;Signal;HPM_P1;HPM_P2
2023/02/09 00:02:17;;;;;;;41.50;16.37;;;;;;;-6.21;64.82;103298.74;125520;1098;101621;-87
2023/02/09 00:04:49;;;;;;;47.23;17.40;;;;;;;-6.22;65.18;103303.63;125630;1098;101810;-86
2023/02/09 00:07:21;;;;;;;46.47;16.43;;;;;;;-6.25;65.29;103296.42;125558;1099;104005;-86
2023/02/09 00:09:54;;;;;;;41.53;15.97;;;;;;;-6.26;65.27;103298.75;125579;1098;101876;-85
2023/02/09 00:15:24;;;;;;;43.57;17.03;;;;;;;-6.28;65.21;103311.30;125229;1099;101894;-86
2023/02/09 00:17:56;;;;;;;42.87;16.57;;;;;;;-6.31;64.51;103313.41;125632;1099;103951;-86
2023/02/09 00:20:29;;;;;;;40.23;15.27;;;;;;;-6.29;64.77;103317.14;125673;1099;103983;-87
2023/02/09 00:23:01;;;;;;;39.97;15.17;;;;;;;-6.28;65.10;103324.08;125560;1099;103875;-84
2023/02/09 00:25:33;;;;;;;42.80;15.60;;;;;;;-6.29;65.27;103311.08;125563;1099;101839;-87
2023/02/09 00:28:06;;;;;;;43.63;16.17;;;;;;;-6.31;64.62;103318.52;125498;1099;101850;-86
2023/02/09 00:30:38;;;;;;;39.73;15.37;;;;;;;-6.33;65.58;103317.38;125633;1099;101686;-86
2023/02/09 00:33:10;;;;;;;41.27;16.20;;;;;;;-6.37;65.46;103308.34;124943;1099;103996;-84
2023/02/09 00:35:43;;;;;;;42.93;16.07;;;;;;;-6.41;65.78;103308.57;125587;1099;103192;-86
2023/02/09 00:38:16;;;;;;;43.57;17.40;;;;;;;-6.43;65.99;103307.42;125542;1099;101863;-85
2023/02/09 00:40:49;;;;;;;41.37;15.57;;;;;;;-6.45;65.87;103310.44;125545;1098;104022;-87
2023/02/09 00:43:21;;;;;;;42.20;16.65;;;;;;;-6.47;65.87;103301.64;125610;1099;104009;-86
2023/02/09 00:45:53;;;;;;;40.03;16.47;;;;;;;-6.48;65.17;103304.87;125617;1099;101941;-85
2023/02/09 00:48:27;;;;;;;41.90;16.43;;;;;;;-6.49;65.43;103303.05;125565;1099;103971;-87
2023/02/09 00:50:59;;;;;;;38.40;15.77;;;;;;;-6.51;65.23;103300.27;125600;1099;101779;-86
2023/02/09 00:53:31;;;;;;;44.13;17.07;;;;;;;-6.53;66.14;103291.42;125569;1099;102016;-87
2023/02/09 00:56:03;;;;;;;39.33;15.87;;;;;;;-6.57;65.22;103290.05;125585;1099;103956;-87
2023/02/09 00:58:36;;;;;;;40.87;16.60;;;;;;;-6.58;65.14;103288.19;125618;1099;101854;-87
2023/02/09 01:01:12;;;;;;;45.10;16.30;;;;;;;-6.61;65.67;103291.92;125550;1099;101621;-86
2023/02/09 01:03:45;;;;;;;38.47;15.87;;;;;;;-6.64;64.70;103292.38;125636;1099;103974;-87
2023/02/09 01:06:19;;;;;;;43.97;16.70;;;;;;;-6.66;65.43;103290.32;125519;1098;103967;-87
2023/02/09 01:08:51;;;;;;;45.43;17.13;;;;;;;-6.69;66.11;103283.12;125616;1099;103955;-86
2023/02/09 01:11:26;;;;;;;42.50;15.77;;;;;;;-6.72;66.55;103275.00;125722;1099;104050;-87
2023/02/09 01:14:01;;;;;;;43.53;16.57;;;;;;;-6.76;67.00;103278.73;125525;1099;101604;-85
2023/02/09 01:16:33;;;;;;;41.30;16.53;;;;;;;-6.79;66.54;103275.72;125631;1098;101707;-85
2023/02/09 01:19:05;;;;;;;39.17;15.53;;;;;;;-6.79;66.39;103274.77;125566;1099;104040;-87
2023/02/09 01:21:38;;;;;;;41.57;16.00;;;;;;;-6.78;65.75;103277.55;125794;1099;101606;-86
2023/02/09 01:24:14;;;;;;;40.33;15.80;;;;;;;-6.78;66.68;103262.23;125693;1098;101740;-87
2023/02/09 01:26:46;;;;;;;45.47;17.00;;;;;;;-6.78;65.85;103259.67;125656;1099;104034;-87
2023/02/09 01:29:20;;;;;;;42.10;16.23;;;;;;;-6.78;65.69;103258.77;125579;1099;101695;-84
2023/02/09 01:31:53;;;;;;;40.40;16.23;;;;;;;-6.81;67.00;103263.41;125644;1099;104006;-87
2023/02/09 01:34:25;;;;;;;43.83;16.33;;;;;;;-6.84;67.16;103260.40;125705;1099;101993;-87
2023/02/09 01:36:57;;;;;;;41.50;16.10;;;;;;;-6.89;66.76;103255.56;125726;1098;104162;-86
2023/02/09 01:39:30;;;;;;;42.07;15.27;;;;;;;-6.91;66.26;103263.67;125801;1099;102390;-87
2023/02/09 01:42:02;;;;;;;40.70;15.53;;;;;;;-6.94;67.21;103259.02;125669;1099;101836;-86
2023/02/09 01:45:21;;;;;;;42.53;15.87;;;;;;;-6.95;65.91;103249.53;125704;1099;104006;-87
2023/02/09 01:47:59;;;;;;;43.13;16.07;;;;;;;-6.96;67.07;103249.30;124919;1102;101608;-87
2023/02/09 01:50:37;;;;;;;42.70;15.93;;;;;;;-6.97;67.42;103242.34;125685;1099;104096;-87
2023/02/09 01:53:10;;;;;;;43.50;16.20;;;;;;;-6.99;66.24;103239.55;125632;1099;104012;-87
2023/02/09 01:55:48;;;;;;;36.50;14.73;;;;;;;-6.98;66.86;103240.47;125762;1099;104076;-87
2023/02/09 01:58:23;;;;;;;40.43;15.53;;;;;;;-7.00;66.10;103245.34;125832;1099;101810;-87
2023/02/09 02:00:55;;;;;;;39.87;15.67;;;;;;;-7.00;67.03;103240.23;125630;1099;101548;-87
2023/02/09 02:03:29;;;;;;;42.93;17.03;;;;;;;-7.00;66.81;103239.33;125630;1099;104083;-87
2023/02/09 02:06:08;;;;;;;37.43;14.50;;;;;;;-7.01;67.17;103238.41;124953;1099;103909;-87
2023/02/09 02:08:45;;;;;;;42.37;15.47;;;;;;;-7.00;66.99;103246.98;125580;1099;104043;-86
2023/02/09 02:11:18;;;;;;;39.67;15.80;;;;;;;-6.99;65.78;103243.74;125537;1099;104095;-85
2023/02/09 02:13:50;;;;;;;39.73;15.20;;;;;;;-6.98;65.83;103240.47;125621;1099;101643;-87
2023/02/09 02:16:34;;;;;;;45.60;17.10;;;;;;;-6.98;66.52;103245.58;125648;1099;101912;-86
2023/02/09 02:19:50;;;;;;;43.68;16.30;;;;;;;-7.02;66.45;103239.09;125659;1099;101601;-86
2023/02/09 02:22:28;;;;;;;;;;;;;;;-7.06;67.16;103237.72;125008;1099;102322;-85
2023/02/09 02:25:31;;;;;;;40.63;15.27;;;;;;;-7.09;66.00;103231.20;124949;1099;101766;-84
2023/02/09 02:28:27;;;;;;;39.63;15.53;;;;;;;-7.12;67.27;103235.85;125023;1099;101867;-86
2023/02/09 02:31:21;;;;;;;42.50;14.57;;;;;;;-7.15;66.95;103231.23;125662;1099;101965;-86
2023/02/09 02:34:00;;;;;;;32.43;12.60;;;;;;;-7.18;66.58;103237.48;125607;1099;103942;-84
2023/02/09 02:36:39;;;;;;;43.07;16.07;;;;;;;-7.20;66.23;103237.25;125580;1099;103993;-87
2023/02/09 02:39:22;;;;;;;37.37;15.00;;;;;;;-7.22;65.87;103238.66;125615;1099;101791;-86
2023/02/09 02:44:59;;;;;;;47.63;17.13;;;;;;;-7.26;66.90;103247.48;125535;1098;104118;-87
2023/02/09 02:47:35;;;;;;;35.80;15.37;;;;;;;-7.27;67.04;103245.62;125549;1099;104098;-87
2023/02/09 02:50:12;;;;;;;43.27;16.00;;;;;;;-7.26;65.56;103244.94;125682;1099;101978;-87
2023/02/09 02:52:48;;;;;;;38.17;14.33;;;;;;;-7.26;66.88;103242.38;125614;1099;102149;-87
2023/02/09 02:55:23;;;;;;;40.90;16.50;;;;;;;-7.28;67.09;103241.20;125619;1099;101769;-84
2023/02/09 02:57:58;;;;;;;38.83;15.37;;;;;;;-7.34;65.85;103232.63;125628;1099;101811;-86
2023/02/09 03:00:36;;;;;;;47.20;16.70;;;;;;;-7.34;65.55;103234.26;125561;1099;101913;-87
2023/02/09 03:03:14;;;;;;;42.30;15.93;;;;;;;-7.35;65.83;103235.89;125597;1098;103948;-87
2023/02/09 03:05:47;;;;;;;41.37;15.97;;;;;;;-7.37;65.50;103231.25;125582;1099;101609;-87
2023/02/09 03:08:19;;;;;;;39.03;16.00;;;;;;;-7.40;65.86;103229.19;125697;1099;104051;-87
2023/02/09 03:10:52;;;;;;;40.63;16.03;;;;;;;-7.43;66.28;103228.72;125695;1099;101845;-87
2023/02/09 03:13:44;;;;;;;40.50;16.27;;;;;;;-7.46;66.07;103230.81;125582;1099;107864;-85
2023/02/09 03:16:26;;;;;;;42.90;15.83;;;;;;;-7.47;65.96;103224.76;125644;1099;101577;-88
2023/02/09 03:19:08;;;;;;;38.93;14.47;;;;;;;-7.48;66.40;103234.73;125561;1099;102082;-86
2023/02/09 03:21:49;;;;;;;44.47;17.43;;;;;;;-7.48;66.41;103230.58;125638;1099;104067;-85
2023/02/09 03:24:31;;;;;;;41.87;15.47;;;;;;;-7.50;67.08;103223.37;125551;1098;101872;-87
2023/02/09 03:27:10;;;;;;;40.43;15.83;;;;;;;-7.55;66.26;103231.97;125694;1099;103988;-87
2023/02/09 03:29:43;;;;;;;43.13;16.23;;;;;;;-7.59;66.73;103228.95;125577;1099;101804;-86
2023/02/09 03:32:17;;;;;;;45.52;17.50;;;;;;;-7.64;66.09;103226.39;125531;1099;103981;-87
2023/02/09 03:34:51;;;;;;;38.55;15.93;;;;;;;-7.69;66.14;103229.87;125670;1099;101804;-85
2023/02/09 03:37:24;;;;;;;42.73;15.90;;;;;;;-7.73;65.74;103237.73;125603;1098;102278;-88
2023/02/09 03:39:56;;;;;;;39.40;15.53;;;;;;;-7.77;66.74;103233.80;125630;1099;104034;-88
2023/02/09 03:42:28;;;;;;;42.03;16.03;;;;;;;-7.83;66.68;103226.14;125720;1099;104123;-87
2023/02/09 03:45:00;;;;;;;41.70;16.13;;;;;;;-7.82;66.40;103232.16;125623;1099;101630;-87
2023/02/09 03:47:32;;;;;;;41.73;16.80;;;;;;;-7.84;65.64;103234.47;125634;1098;103973;-88
2023/02/09 03:50:06;;;;;;;42.00;15.30;;;;;;;-7.83;66.47;103240.52;125668;1099;103951;-84
2023/02/09 03:52:38;;;;;;;38.92;14.73;;;;;;;-7.84;66.65;103238.65;125612;1099;101657;-88
2023/02/09 03:55:10;;;;;;;38.87;15.23;;;;;;;-7.85;67.37;103240.28;125522;1099;102032;-86
2023/02/09 03:57:43;;;;;;;37.73;13.53;;;;;;;-7.85;67.28;103237.73;125650;1099;104027;-87
2023/02/09 04:00:17;;;;;;;39.67;15.13;;;;;;;-7.92;67.93;103240.03;125674;1099;104156;-88
2023/02/09 04:02:49;;;;;;;36.83;14.10;;;;;;;-8.00;66.35;103231.20;125687;1099;104002;-87
2023/02/09 04:05:21;;;;;;;39.50;15.13;;;;;;;-8.03;66.98;103224.73;125828;1099;104012;-84
2023/02/09 04:07:54;;;;;;;38.17;14.90;;;;;;;-8.06;67.69;103234.45;125872;1099;103964;-85
2023/02/09 04:10:27;;;;;;;39.13;14.93;;;;;;;-8.11;67.23;103237.92;125771;1099;103958;-83
2023/02/09 04:12:59;;;;;;;41.53;14.10;;;;;;;-8.16;66.62;103235.58;125818;1099;103982;-86
2023/02/09 04:15:31;;;;;;;40.63;15.20;;;;;;;-8.19;67.81;103232.56;125677;1099;101951;-89
2023/02/09 04:18:03;;;;;;;39.10;14.87;;;;;;;-8.20;66.73;103237.42;125769;1099;103942;-87
2023/02/09 04:20:36;;;;;;;34.77;13.43;;;;;;;-8.21;67.90;103238.10;125694;1099;103897;-87
2023/02/09 04:23:08;;;;;;;40.40;15.70;;;;;;;-8.23;67.30;103239.50;125677;1099;103987;-87
2023/02/09 04:25:40;;;;;;;40.37;14.10;;;;;;;-8.28;68.17;103242.97;125659;1099;101738;-86
2023/02/09 04:28:12;;;;;;;39.20;15.37;;;;;;;-8.32;67.85;103239.95;125745;1096;101774;-88
2023/02/09 04:30:44;;;;;;;42.67;15.90;;;;;;;-8.34;67.67;103240.39;125687;1099;104124;-87
2023/02/09 04:33:16;;;;;;;42.53;16.40;;;;;;;-8.36;67.48;103245.24;125672;1099;103945;-85
2023/02/09 04:35:49;;;;;;;39.57;15.57;;;;;;;-8.36;67.45;103246.87;125621;1097;101742;-87
2023/02/09 04:38:22;;;;;;;40.17;15.40;;;;;;;-8.35;67.52;103257.30;125595;1098;101529;-86
2023/02/09 04:40:55;;;;;;;35.03;14.23;;;;;;;-8.36;67.36;103251.97;125661;1099;102008;-87
2023/02/09 04:43:28;;;;;;;42.45;14.98;;;;;;;-8.41;67.38;103246.16;125640;1099;101750;-87
2023/02/09 04:46:01;;;;;;;39.70;15.50;;;;;;;-8.45;68.12;103254.04;125688;1099;103855;-84
2023/02/09 04:48:33;;;;;;;41.80;15.15;;;;;;;-8.46;67.15;103259.84;125662;1099;103974;-85
2023/02/09 04:51:06;;;;;;;40.70;14.90;;;;;;;-8.48;67.94;103255.20;125075;1099;101682;-86
2023/02/09 04:53:38;;;;;;;40.83;15.33;;;;;;;-8.51;68.01;103255.63;125762;1099;103952;-86
2023/02/09 04:56:13;;;;;;;45.20;15.10;;;;;;;-8.53;67.90;103244.30;125635;1099;103945;-85
2023/02/09 05:01:35;;;;;;;38.23;14.67;;;;;;;-8.56;67.73;103259.09;125638;1099;101889;-87
2023/02/09 05:04:07;;;;;;;45.93;15.73;;;;;;;-8.56;68.22;103261.64;125646;1098;102022;-86
2023/02/09 05:06:39;;;;;;;38.53;14.23;;;;;;;-8.57;68.34;103257.22;125678;1099;101888;-87
2023/02/09 05:09:12;;;;;;;39.23;15.80;;;;;;;-8.60;67.89;103256.75;125614;1099;103868;-87
2023/02/09 05:11:44;;;;;;;41.53;16.50;;;;;;;-8.61;69.04;103262.55;125604;1099;104003;-86
2023/02/09 05:14:16;;;;;;;45.73;17.47;;;;;;;-8.64;67.87;103265.53;125607;1099;104041;-84
2023/02/09 05:16:48;;;;;;;47.23;17.57;;;;;;;-8.67;68.73;103273.61;125636;1099;104013;-85
2023/02/09 05:19:20;;;;;;;44.87;17.80;;;;;;;-8.69;68.01;103275.00;125736;1099;104102;-84
2023/02/09 05:21:53;;;;;;;43.80;16.87;;;;;;;-8.73;69.00;103267.56;125601;1099;103960;-86
2023/02/09 05:24:25;;;;;;;43.83;17.57;;;;;;;-8.73;68.09;103269.19;125645;1099;101814;-86
2023/02/09 05:26:58;;;;;;;42.30;16.40;;;;;;;-8.75;68.21;103273.13;125610;1099;101921;-79
2023/02/09 05:29:31;;;;;;;44.97;16.77;;;;;;;-8.79;68.84;103274.23;125563;1099;102195;-86
2023/02/09 05:32:03;;;;;;;43.97;16.53;;;;;;;-8.81;68.92;103278.16;125795;1098;103989;-87
2023/02/09 05:34:35;;;;;;;42.73;17.13;;;;;;;-8.79;68.58;103278.41;126066;1099;102002;-86
2023/02/09 05:37:07;;;;;;;42.77;15.70;;;;;;;-8.79;68.94;103276.78;125907;1099;104005;-86
2023/02/09 05:39:39;;;;;;;42.70;17.00;;;;;;;-8.78;67.79;103281.19;125887;1099;104058;-84
2023/02/09 05:42:16;;;;;;;47.13;17.53;;;;;;;-8.75;68.14;103288.39;126644;1099;101573;-84
2023/02/09 05:44:50;;;;;;;41.30;15.80;;;;;;;-8.73;68.40;103285.38;126421;1099;101834;-89
2023/02/09 05:47:25;;;;;;;46.35;16.30;;;;;;;-8.73;68.57;103279.38;125758;1099;103589;-85
2023/02/09 05:49:57;;;;;;;43.47;16.37;;;;;;;-8.72;68.62;103283.78;125573;1099;101763;-87
2023/02/09 05:52:30;;;;;;;44.70;17.03;;;;;;;-8.64;68.80;103277.34;125618;1099;101804;-84
2023/02/09 05:55:02;;;;;;;45.33;17.40;;;;;;;-8.55;69.50;103279.70;125605;1099;102168;-84
2023/02/09 05:57:35;;;;;;;48.67;17.80;;;;;;;-8.46;69.49;103280.22;125776;1099;104073;-87
2023/02/09 06:00:09;;;;;;;47.40;18.67;;;;;;;-8.40;69.75;103281.11;125566;1099;103874;-84
2023/02/09 06:02:44;;;;;;;48.90;17.77;;;;;;;-8.30;68.90;103278.39;125646;1099;103971;-85
2023/02/09 06:05:18;;;;;;;45.90;17.65;;;;;;;-8.22;68.39;103285.59;125349;1099;103881;-80
2023/02/09 06:07:49;;;;;;;;;;;;;;;-8.11;69.59;103287.25;125565;1099;103011;-82
2023/02/09 06:10:22;;;;;;;56.53;18.90;;;;;;;-7.98;70.02;103283.37;125530;1099;102515;-86
2023/02/09 06:12:54;;;;;;;44.13;17.27;;;;;;;-7.83;69.91;103283.86;125469;1099;103973;-78
2023/02/09 06:15:26;;;;;;;48.33;17.03;;;;;;;-7.81;70.18;103279.91;125567;1099;102022;-84
2023/02/09 06:17:59;;;;;;;49.13;18.63;;;;;;;-7.85;69.73;103281.07;125618;1099;104072;-87
2023/02/09 06:20:31;;;;;;;50.87;18.93;;;;;;;-7.81;69.35;103275.73;125629;1099;102248;-83
2023/02/09 06:23:04;;;;;;;47.07;19.47;;;;;;;-7.72;70.63;103280.40;125726;1099;101802;-80
2023/02/09 06:25:38;;;;;;;51.73;20.27;;;;;;;-7.73;68.75;103273.44;125672;1099;101865;-80
2023/02/09 06:28:12;;;;;;;44.70;17.32;;;;;;;-7.73;70.27;103271.80;125672;1099;102125;-81
2023/02/09 06:30:47;;;;;;;52.30;18.47;;;;;;;-7.72;70.42;103271.12;125641;1099;104092;-76
2023/02/09 06:33:19;;;;;;;46.73;18.60;;;;;;;-7.68;70.16;103268.35;125710;1099;102348;-79
2023/02/09 06:35:52;;;;;;;48.43;19.50;;;;;;;-7.64;69.33;103265.55;125916;1099;101784;-79
2023/02/09 06:38:24;;;;;;;47.97;18.57;;;;;;;-7.57;70.22;103264.89;125516;1099;103814;-78
2023/02/09 06:40:56;;;;;;;48.67;19.20;;;;;;;-7.42;68.97;103266.27;125462;1099;104069;-78
2023/02/09 06:43:29;;;;;;;54.80;19.43;;;;;;;-7.35;69.13;103271.61;125526;1099;102751;-75
2023/02/09 06:46:07;;;;;;;55.80;18.93;;;;;;;-7.29;69.83;103271.59;125497;1099;102524;-79
2023/02/09 06:48:40;;;;;;;45.37;18.57;;;;;;;-7.26;69.66;103264.40;125433;1099;104053;-76
2023/02/09 06:51:15;;;;;;;42.43;16.73;;;;;;;-7.17;69.99;103262.31;125631;1099;103958;-77
2023/02/09 06:53:48;;;;;;;48.13;18.67;;;;;;;-7.09;70.43;103260.23;125709;1099;103138;-76
2023/02/09 06:56:21;;;;;;;51.35;18.50;;;;;;;-7.00;69.58;103267.41;125597;1099;103712;-79
2023/02/09 06:58:56;;;;;;;44.03;16.93;;;;;;;-6.87;69.69;103266.00;125523;1099;101973;-77
2023/02/09 07:01:29;;;;;;;46.83;18.53;;;;;;;-6.78;70.93;103258.77;125500;1098;102396;-78
2023/02/09 07:04:01;;;;;;;47.83;17.37;;;;;;;-6.71;70.24;103256.44;125686;1099;102439;-75
2023/02/09 07:06:35;;;;;;;44.80;17.63;;;;;;;-6.51;70.29;103260.30;125556;1098;103433;-76
2023/02/09 07:09:10;;;;;;;47.78;18.82;;;;;;;-6.37;69.99;103258.88;125641;1099;101917;-74
2023/02/09 07:11:43;;;;;;;45.43;15.57;;;;;;;-6.30;69.42;103253.02;125315;1099;103997;-76
2023/02/09 07:14:15;;;;;;;49.27;19.50;;;;;;;-6.23;69.68;103248.09;124912;1099;104067;-76
2023/02/09 07:16:48;;;;;;;45.57;16.80;;;;;;;-6.21;69.91;103246.70;125663;1099;102628;-76
2023/02/09 07:19:22;;;;;;;43.80;18.17;;;;;;;-6.17;70.03;103247.37;125646;1098;101855;-76
2023/02/09 07:21:55;;;;;;;45.87;18.73;;;;;;;-6.11;69.99;103246.41;125573;1099;103970;-77
2023/02/09 07:24:27;;;;;;;47.20;18.30;;;;;;;-6.10;69.93;103244.08;125479;1099;102964;-75
2023/02/09 07:27:00;;;;;;;44.87;17.30;;;;;;;-6.04;70.29;103247.53;125377;1099;102288;-75
2023/02/09 07:29:36;;;;;;;48.37;18.90;;;;;;;-5.99;70.12;103241.45;124808;1099;102178;-75
2023/02/09 07:32:10;;;;;;;46.70;18.63;;;;;;;-5.97;69.99;103239.11;125525;1099;101817;-76
2023/02/09 07:34:44;;;;;;;47.30;18.73;;;;;;;-5.93;69.06;103240.47;125604;1099;102170;-77
2023/02/09 07:37:18;;;;;;;48.47;18.00;;;;;;;-5.90;69.67;103246.95;125358;1099;102626;-75
2023/02/09 07:39:52;;;;;;;47.00;18.37;;;;;;;-5.81;69.85;103247.37;125275;1099;104101;-77
2023/02/09 07:42:24;;;;;;;47.70;19.33;;;;;;;-5.72;70.08;103246.11;125420;1099;102131;-76
2023/02/09 07:45:03;;;;;;;50.33;19.73;;;;;;;-5.60;69.41;103246.97;125605;1099;102729;-76
2023/02/09 07:47:38;;;;;;;50.73;19.20;;;;;;;-5.50;69.31;103239.92;125447;1099;102170;-77
2023/02/09 07:50:11;;;;;;;49.13;19.63;;;;;;;-5.39;69.69;103243.06;125573;1099;102197;-79
2023/02/09 07:52:44;;;;;;;45.77;20.50;;;;;;;-5.28;69.76;103236.23;125733;1099;102552;-78
2023/02/09 07:55:16;;;;;;;46.63;19.80;;;;;;;-5.21;69.46;103239.66;125600;1099;101968;-77
2023/02/09 07:57:49;;;;;;;48.55;19.55;;;;;;;-5.15;69.43;103241.45;125425;1099;102630;-77
2023/02/09 08:00:29;;;;;;;48.60;19.03;;;;;;;-5.10;69.46;103232.78;125417;1099;101779;-77
2023/02/09 08:03:05;;;;;;;51.33;20.07;;;;;;;-5.02;69.15;103240.64;125672;1099;102349;-77
2023/02/09 08:08:37;;;;;;;52.40;20.03;;;;;;;-4.77;69.43;103229.65;125752;1099;101899;-78
2023/02/09 08:11:29;;;;;;;54.13;21.40;;;;;;;-4.68;69.20;103224.91;125911;1098;102564;-78
2023/02/09 08:14:10;;;;;;;52.00;19.67;;;;;;;-4.53;69.40;103227.05;126286;1099;102735;-78
2023/02/09 08:16:44;;;;;;;49.60;19.60;;;;;;;-4.41;68.85;103225.25;126238;1099;102054;-77
2023/02/09 08:19:23;;;;;;;53.83;20.90;;;;;;;-4.36;68.99;103217.50;125784;1099;102039;-78
2023/02/09 08:21:55;;;;;;;49.60;19.65;;;;;;;-4.23;69.17;103217.55;125685;1099;103993;-77
2023/02/09 08:24:33;;;;;;;48.90;19.70;;;;;;;-4.13;69.46;103209.47;125502;1099;102888;-77
2023/02/09 08:27:09;;;;;;;50.40;21.30;;;;;;;-3.95;69.12;103205.05;125509;1099;101748;-77
2023/02/09 08:29:42;;;;;;;50.67;20.27;;;;;;;-3.87;69.53;103207.92;125581;1099;102401;-79
2023/02/09 08:32:20;;;;;;;53.17;21.53;;;;;;;-3.80;69.14;103209.71;125695;1099;103954;-78
2023/02/09 08:34:54;;;;;;;53.77;20.97;;;;;;;-3.66;69.62;103204.80;125881;1099;102862;-78
2023/02/09 08:37:28;;;;;;;52.20;19.70;;;;;;;-3.56;69.10;103204.41;126011;1099;102834;-77
2023/02/09 08:40:00;;;;;;;51.70;21.27;;;;;;;-3.47;68.47;103208.22;125513;1099;113016;-77
2023/02/09 08:42:33;;;;;;;54.67;22.63;;;;;;;-3.40;68.21;103214.18;125493;1099;102803;-77
2023/02/09 08:45:06;;;;;;;47.63;19.83;;;;;;;-3.35;67.84;103223.41;125628;1099;102582;-77
2023/02/09 08:47:39;;;;;;;44.48;17.87;;;;;;;-3.32;68.30;103213.56;125536;1099;104015;-79
2023/02/09 08:50:12;;;;;;;41.30;17.40;;;;;;;-3.26;66.20;103211.81;125540;1099;103437;-79
2023/02/09 08:52:46;;;;;;;40.73;16.48;;;;;;;-3.13;65.83;103206.67;125545;1099;103078;-78
2023/02/09 08:55:18;;;;;;;40.63;16.20;;;;;;;-2.94;68.03;103204.94;125592;1099;102087;-78
2023/02/09 08:57:53;;;;;;;43.30;16.97;;;;;;;-2.85;66.37;103201.02;125645;1098;103199;-77
2023/02/09 09:00:26;;;;;;;45.13;18.03;;;;;;;-2.76;66.94;103198.72;125499;1099;107080;-78
2023/02/09 09:02:59;;;;;;;47.53;18.73;;;;;;;-2.66;67.70;103201.80;125463;1099;102881;-77
2023/02/09 09:05:37;;;;;;;39.03;16.23;;;;;;;-2.56;67.33;103196.21;125367;1099;102707;-76
2023/02/09 09:08:11;;;;;;;46.93;18.00;;;;;;;-2.49;67.73;103193.73;125694;1099;102351;-77
2023/02/09 09:10:44;;;;;;;43.10;16.60;;;;;;;-2.41;66.05;103187.03;125412;1098;118969;-77
2023/02/09 09:13:17;;;;;;;37.27;15.70;;;;;;;-2.48;66.18;103180.13;125454;1099;101957;-77
2023/02/09 09:15:49;;;;;;;39.07;15.43;;;;;;;-2.45;66.94;103179.63;125593;1099;102185;-79
2023/02/09 09:18:21;;;;;;;38.50;15.73;;;;;;;-2.37;66.66;103179.91;125511;1099;102800;-78
2023/02/09 09:20:58;;;;;;;42.60;16.30;;;;;;;-2.35;65.97;103175.87;125359;1099;103989;-78
2023/02/09 09:23:33;;;;;;;41.17;17.07;;;;;;;-2.31;65.58;103174.62;126245;1099;101867;-77
2023/02/09 09:26:09;;;;;;;44.07;16.17;;;;;;;-2.19;66.13;103173.64;125484;1099;102834;-78
2023/02/09 09:28:42;;;;;;;36.00;15.57;;;;;;;-2.05;66.49;103180.58;125048;1099;103216;-77
2023/02/09 09:31:37;;;;;;;40.40;16.77;;;;;;;-2.00;63.55;103171.79;125420;1099;110826;-76
2023/02/09 09:34:13;;;;;;;44.90;16.87;;;;;;;-1.85;65.24;103170.27;125526;1099;101645;-79
2023/02/09 09:36:45;;;;;;;43.10;16.93;;;;;;;-1.66;67.16;103167.48;125322;1099;102897;-76
2023/02/09 09:39:18;;;;;;;37.03;16.27;;;;;;;-1.54;65.86;103161.31;125344;1099;101690;-76
2023/02/09 09:41:56;;;;;;;42.20;16.50;;;;;;;-1.59;64.76;103166.59;125628;1099;102771;-75
2023/02/09 09:44:35;;;;;;;40.60;16.97;;;;;;;-1.66;65.54;103157.18;125345;1099;103942;-77
2023/02/09 09:47:16;;;;;;;42.67;17.00;;;;;;;-1.60;65.76;103147.66;125319;1099;102657;-74
2023/02/09 09:49:51;;;;;;;42.13;17.00;;;;;;;-1.46;66.33;103134.87;125281;1099;102010;-75
2023/02/09 09:52:32;;;;;;;37.73;16.33;;;;;;;-1.24;66.42;103129.84;125390;1099;102845;-76
2023/02/09 09:55:20;;;;;;;38.43;15.43;;;;;;;-1.06;66.92;103125.13;125446;1098;102552;-75
2023/02/09 09:57:56;;;;;;;40.67;16.73;;;;;;;-1.04;65.01;103115.91;125142;1099;104056;-76
2023/02/09 10:00:33;;;;;;;40.57;15.80;;;;;;;-0.93;66.80;103118.20;125354;1099;102910;-77
2023/02/09 10:03:18;;;;;;;37.90;15.77;;;;;;;-0.81;66.37;103118.77;125281;1099;102677;-78
2023/02/09 10:06:05;;;;;;;39.20;16.13;;;;;;;-0.80;65.55;103120.63;125663;1099;103961;-76
2023/02/09 10:09:06;;;;;;;36.80;15.27;;;;;;;-0.77;63.78;103124.49;126089;1099;102792;-76
2023/02/09 10:11:47;;;;;;;36.35;14.95;;;;;;;-0.83;64.59;103123.73;125603;1098;103246;-80
2023/02/09 10:14:19;;;;;;;37.70;15.00;;;;;;;-0.79;63.99;103115.66;125635;1099;101947;-77
2023/02/09 10:16:55;;;;;;;41.40;15.50;;;;;;;-0.69;65.24;103115.12;125370;1099;102378;-75
2023/02/09 10:19:31;;;;;;;37.10;15.33;;;;;;;-0.57;64.96;103111.47;125319;1098;102275;-77
2023/02/09 10:22:04;;;;;;;36.07;15.07;;;;;;;-0.52;63.68;103111.11;125366;1099;102811;-76
2023/02/09 10:24:38;;;;;;;31.30;13.33;;;;;;;-0.48;64.46;103105.57;125413;1099;103757;-76
2023/02/09 10:27:18;;;;;;;37.10;13.83;;;;;;;-0.42;65.24;103096.95;125499;1099;102736;-78
2023/02/09 10:29:51;;;;;;;39.10;14.70;;;;;;;-0.35;63.78;103087.37;125471;1099;104037;-78
2023/02/09 10:32:39;;;;;;;36.47;14.40;;;;;;;-0.28;64.38;103088.30;125637;1099;102334;-79
2023/02/09 10:35:28;;;;;;;32.73;13.83;;;;;;;-0.26;62.73;103081.66;125728;1099;102219;-79
2023/02/09 10:38:03;;;;;;;36.87;13.60;;;;;;;-0.21;62.38;103077.05;125189;1099;102875;-78
2023/02/09 10:40:46;;;;;;;33.63;12.87;;;;;;;-0.15;60.05;103077.78;125608;1099;102357;-78
2023/02/09 10:43:24;;;;;;;32.07;12.47;;;;;;;-0.18;61.80;103082.58;125719;1099;102674;-79
2023/02/09 10:46:02;;;;;;;31.47;11.90;;;;;;;-0.15;61.39;103076.88;125749;1099;101995;-78
2023/02/09 10:48:44;;;;;;;26.63;10.20;;;;;;;-0.12;60.46;103072.08;125734;1099;103839;-77
2023/02/09 10:51:32;;;;;;;28.47;10.80;;;;;;;-0.14;60.03;103069.31;125701;1099;102533;-79
2023/02/09 10:54:19;;;;;;;30.27;11.43;;;;;;;-0.11;59.90;103067.09;125579;1099;103104;-79
2023/02/09 10:56:51;;;;;;;30.07;10.30;;;;;;;-0.04;61.37;103061.91;125587;1099;102193;-77
2023/02/09 10:59:26;;;;;;;23.93;9.03;;;;;;;0.03;60.73;103052.31;125656;1099;102578;-78
2023/02/09 11:02:02;;;;;;;26.40;9.87;;;;;;;0.02;59.53;103043.66;125627;1099;102408;-77
2023/02/09 11:04:41;;;;;;;23.97;8.77;;;;;;;0.08;59.74;103043.44;125781;1099;103974;-78
2023/02/09 11:07:22;;;;;;;26.43;10.07;;;;;;;0.15;59.63;103038.28;126022;1098;102241;-80
2023/02/09 11:09:59;;;;;;;31.90;10.63;;;;;;;0.21;57.43;103045.84;125969;1099;103929;-77
2023/02/09 11:12:35;;;;;;;27.27;9.57;;;;;;;0.28;60.17;103039.00;125697;1099;102471;-79
2023/02/09 11:15:15;;;;;;;24.10;9.83;;;;;;;0.30;57.98;103044.34;125812;1097;103335;-77
2023/02/09 11:17:55;;;;;;;25.90;10.17;;;;;;;0.32;59.43;103042.85;125739;1099;102132;-78
2023/02/09 11:20:34;;;;;;;29.33;9.53;;;;;;;0.35;58.95;103038.95;125854;1099;101914;-78
2023/02/09 11:23:31;;;;;;;28.73;9.50;;;;;;;0.38;58.10;103032.33;125785;1099;103427;-78
2023/02/09 11:26:13;;;;;;;25.53;9.20;;;;;;;0.28;53.99;103023.50;125698;1099;101978;-78
2023/02/09 11:28:57;;;;;;;22.17;8.70;;;;;;;0.29;54.29;103030.48;125803;1098;103955;-78
2023/02/09 11:32:08;;;;;;;24.60;9.33;;;;;;;0.29;57.13;103027.91;125862;1099;102079;-80
2023/02/09 11:35:03;;;;;;;26.40;9.33;;;;;;;0.32;57.97;103020.52;117051;1099;10001483;-78
2023/02/09 11:37:50;;;;;;;23.00;9.33;;;;;;;0.39;59.08;103016.07;125829;1099;103849;-80
2023/02/09 11:40:28;;;;;;;23.13;8.50;;;;;;;0.44;58.77;103018.46;125822;1099;103025;-76
2023/02/09 11:43:15;;;;;;;27.83;9.57;;;;;;;0.49;59.36;103013.83;125704;1099;102480;-77
2023/02/09 11:45:50;;;;;;;28.20;9.40;;;;;;;0.46;59.11;103004.05;125679;1099;102050;-77